createdAt,value
2018-05-19T00:00:58.718Z,66.04
2018-05-19T00:03:26.263Z,64.33
2018-05-19T00:05:53.814Z,64.16
2018-05-19T00:08:21.362Z,65.61
2018-05-19T00:10:48.906Z,66.41
2018-05-19T00:13:16.425Z,67.43
2018-05-19T00:15:44.134Z,67.88
2018-05-19T00:18:11.667Z,67.95
2018-05-19T00:20:39.183Z,67.83
2018-05-19T00:23:06.746Z,67.83
2018-05-19T00:25:34.647Z,68.80
2018-05-19T00:28:02.174Z,68.77
2018-05-19T00:30:29.693Z,68.34
2018-05-19T00:32:57.451Z,68.75
2018-05-19T00:35:24.983Z,68.94
2018-05-19T00:37:52.497Z,68.76
2018-05-19T00:40:20.041Z,68.02
2018-05-19T00:42:47.745Z,67.96
2018-05-19T00:45:15.270Z,68.17
2018-05-19T00:47:42.794Z,68.46
2018-05-19T00:50:10.336Z,68.99
2018-05-19T00:52:37.858Z,67.64
2018-05-19T00:55:05.410Z,68.56
2018-05-19T00:57:32.954Z,66.73
2018-05-19T01:00:00.481Z,67.21
2018-05-19T01:02:28.031Z,67.81
2018-05-19T01:04:55.554Z,67.42
2018-05-19T01:07:23.072Z,65.72
2018-05-19T01:09:50.613Z,65.74
2018-05-19T01:12:18.129Z,66.25
2018-05-19T01:14:45.677Z,66.30
2018-05-19T01:17:13.193Z,67.04
2018-05-19T01:19:40.730Z,67.04
2018-05-19T01:22:08.270Z,63.94
2018-05-19T01:24:35.785Z,62.82
2018-05-19T01:27:03.551Z,63.31
2018-05-19T01:29:31.065Z,65.36
2018-05-19T01:31:58.591Z,66.06
2018-05-19T01:34:26.138Z,64.62
2018-05-19T01:36:53.758Z,65.63
2018-05-19T01:39:21.311Z,65.53
2018-05-19T01:41:49.315Z,66.27
2018-05-19T01:44:16.847Z,66.11
2018-05-19T01:46:44.361Z,67.49
2018-05-19T01:49:11.962Z,66.22
2018-05-19T01:51:39.487Z,65.64
2018-05-19T01:54:07.014Z,66.31
2018-05-19T01:56:34.555Z,66.56
2018-05-19T01:59:02.074Z,67.43
2018-05-19T02:01:29.622Z,67.56
2018-05-19T02:03:57.141Z,67.40
2018-05-19T02:06:24.825Z,66.84
2018-05-19T02:08:52.350Z,65.98
2018-05-19T02:11:19.866Z,66.12
2018-05-19T02:13:47.419Z,65.90
2018-05-19T02:16:14.937Z,65.73
2018-05-19T02:18:42.477Z,65.64
2018-05-19T02:21:10.003Z,65.55
2018-05-19T02:23:37.549Z,65.44
2018-05-19T02:26:05.078Z,65.62
2018-05-19T02:28:32.603Z,65.50
2018-05-19T02:31:00.149Z,65.59
2018-05-19T02:33:27.694Z,65.62
2018-05-19T02:35:55.247Z,65.79
2018-05-19T02:38:22.790Z,65.91
2018-05-19T02:40:50.343Z,65.95
2018-05-19T02:43:17.862Z,66.02
2018-05-19T02:45:45.440Z,66.08
2018-05-19T02:48:12.963Z,66.07
2018-05-19T02:50:40.510Z,65.98
2018-05-19T02:53:08.215Z,65.84
2018-05-19T02:55:35.738Z,66.06
2018-05-19T02:58:04.067Z,66.40
2018-05-19T03:00:31.619Z,66.62
2018-05-19T03:02:59.141Z,66.81
2018-05-19T03:05:26.715Z,66.87
2018-05-19T03:07:54.240Z,67.34
2018-05-19T03:10:21.764Z,67.71
2018-05-19T03:12:49.322Z,67.62
2018-05-19T03:15:16.834Z,67.57
2018-05-19T03:17:44.386Z,67.35
2018-05-19T03:20:11.910Z,67.63
2018-05-19T03:22:39.599Z,67.45
2018-05-19T03:25:07.117Z,67.16
2018-05-19T03:27:34.646Z,67.12
2018-05-19T03:30:02.330Z,67.20
2018-05-19T03:32:29.857Z,67.09
2018-05-19T03:34:57.377Z,67.39
2018-05-19T03:37:24.918Z,68.29
2018-05-19T03:39:52.438Z,68.23
2018-05-19T03:42:20.385Z,67.73
2018-05-19T03:44:47.904Z,67.45
2018-05-19T03:47:15.422Z,67.38
2018-05-19T03:49:42.961Z,67.58
2018-05-19T03:52:10.510Z,67.59
2018-05-19T03:54:38.049Z,67.34
2018-05-19T03:57:17.582Z,67.18
2018-05-19T03:59:57.054Z,67.26
2018-05-19T04:02:35.793Z,67.76
2018-05-19T04:05:03.314Z,68.27
2018-05-19T04:07:30.849Z,67.30
2018-05-19T04:09:58.389Z,65.96
2018-05-19T04:12:26.894Z,65.92
2018-05-19T04:14:54.434Z,68.20
2018-05-19T04:17:21.959Z,67.73
2018-05-19T04:19:49.634Z,67.98
2018-05-19T04:22:17.157Z,67.95
2018-05-19T04:24:44.684Z,68.09
2018-05-19T04:27:12.242Z,68.50
2018-05-19T04:29:39.771Z,68.33
2018-05-19T04:32:07.694Z,68.51
2018-05-19T04:34:35.213Z,68.62
2018-05-19T04:37:02.741Z,68.18
2018-05-19T04:39:30.721Z,66.61
2018-05-19T04:41:58.254Z,66.45
2018-05-19T04:44:25.790Z,66.76
2018-05-19T04:46:53.709Z,66.47
2018-05-19T04:49:21.248Z,65.86
2018-05-19T04:51:48.770Z,65.98
2018-05-19T04:54:16.320Z,67.21
2018-05-19T04:56:43.854Z,68.40
2018-05-19T04:59:11.412Z,68.65
2018-05-19T05:01:38.935Z,68.54
2018-05-19T05:04:06.615Z,69.24
2018-05-19T05:06:34.065Z,68.65
2018-05-19T05:09:01.592Z,68.16
2018-05-19T05:11:29.151Z,68.00
2018-05-19T05:13:56.727Z,68.16
2018-05-19T05:16:24.262Z,69.04
2018-05-19T05:18:51.794Z,68.68
2018-05-19T05:21:19.348Z,67.93
2018-05-19T05:23:46.942Z,67.81
2018-05-19T05:26:14.470Z,68.98
2018-05-19T05:28:42.005Z,70.71
2018-05-19T05:31:09.551Z,74.04
2018-05-19T05:33:37.089Z,73.76
2018-05-19T05:36:04.601Z,74.06
2018-05-19T05:38:32.281Z,74.31
2018-05-19T05:40:59.807Z,74.90
2018-05-19T05:43:27.327Z,74.67
2018-05-19T05:45:54.869Z,75.17
2018-05-19T05:48:22.400Z,75.16
2018-05-19T05:50:49.945Z,75.00
2018-05-19T05:53:17.457Z,74.81
2018-05-19T05:55:44.997Z,74.55
2018-05-19T05:58:12.573Z,74.09
2018-05-19T06:00:40.100Z,73.97
2018-05-19T06:03:07.626Z,73.43
2018-05-19T06:05:35.175Z,73.52
2018-05-19T06:08:02.707Z,74.39
2018-05-19T06:10:30.420Z,74.73
2018-05-19T06:12:57.946Z,74.45
2018-05-19T06:15:25.474Z,74.33
2018-05-19T06:17:53.032Z,73.69
2018-05-19T06:20:20.555Z,74.21
2018-05-19T06:22:48.295Z,73.48
2018-05-19T06:25:15.818Z,73.13
2018-05-19T06:27:43.356Z,72.56
2018-05-19T06:30:10.902Z,70.25
2018-05-19T06:32:38.417Z,70.75
2018-05-19T06:35:05.961Z,71.81
2018-05-19T06:37:33.486Z,70.88
2018-05-19T06:40:01.044Z,70.30
2018-05-19T06:42:28.585Z,70.23
2018-05-19T06:44:56.139Z,70.75
2018-05-19T06:47:24.117Z,69.96
2018-05-19T06:49:51.650Z,69.68
2018-05-19T06:52:19.169Z,71.35
2018-05-19T06:54:46.754Z,71.60
2018-05-19T06:57:14.347Z,70.27
2018-05-19T06:59:41.826Z,69.00
2018-05-19T07:02:09.370Z,67.72
2018-05-19T07:04:36.893Z,68.77
2018-05-19T07:07:04.442Z,67.94
2018-05-19T07:09:31.991Z,67.54
2018-05-19T07:11:59.531Z,66.39
2018-05-19T07:14:27.056Z,66.47
2018-05-19T07:16:54.601Z,66.60
2018-05-19T07:19:22.125Z,65.54
2018-05-19T07:21:49.674Z,66.19
2018-05-19T07:24:17.261Z,65.54
2018-05-19T07:26:44.806Z,66.56
2018-05-19T07:29:12.326Z,64.94
2018-05-19T07:31:39.874Z,64.76
2018-05-19T07:34:07.409Z,65.86
2018-05-19T07:36:34.990Z,64.72
2018-05-19T07:39:02.519Z,63.94
2018-05-19T07:41:30.043Z,64.22
2018-05-19T07:43:57.801Z,63.16
2018-05-19T07:46:25.320Z,63.85
2018-05-19T07:48:52.837Z,63.47
2018-05-19T07:51:20.387Z,63.84
2018-05-19T07:53:47.931Z,64.52
2018-05-19T07:56:15.473Z,64.23
2018-05-19T07:58:42.994Z,63.13
2018-05-19T08:01:10.550Z,63.20
2018-05-19T08:03:38.084Z,62.84
2018-05-19T08:06:05.636Z,62.99
2018-05-19T08:08:33.159Z,62.54
2018-05-19T08:11:00.703Z,61.96
2018-05-19T08:13:28.270Z,62.49
2018-05-19T08:15:55.789Z,61.79
2018-05-19T08:18:23.330Z,62.29
2018-05-19T08:20:50.867Z,62.40
2018-05-19T08:23:18.390Z,62.60
2018-05-19T08:25:45.939Z,62.18
2018-05-19T08:28:13.458Z,61.66
2018-05-19T08:30:40.973Z,61.15
2018-05-19T08:33:08.962Z,61.93
2018-05-19T08:35:36.478Z,61.02
2018-05-19T08:38:03.994Z,60.89
2018-05-19T08:40:31.550Z,61.27
2018-05-19T08:42:59.083Z,61.73
2018-05-19T08:45:26.622Z,62.30
2018-05-19T08:47:54.141Z,61.19
2018-05-19T08:50:21.695Z,60.10
2018-05-19T08:52:49.439Z,60.02
2018-05-19T08:55:16.957Z,61.37
2018-05-19T08:57:44.478Z,60.95
2018-05-19T09:00:12.163Z,59.20
2018-05-19T09:02:39.679Z,60.12
2018-05-19T09:05:07.203Z,54.76
2018-05-19T09:07:34.745Z,59.06
2018-05-19T09:10:02.277Z,59.54
2018-05-19T09:12:29.827Z,59.74
2018-05-19T09:14:57.368Z,58.25
2018-05-19T09:17:24.897Z,57.78
2018-05-19T09:19:52.793Z,59.00
2018-05-19T09:22:20.333Z,58.79
2018-05-19T09:24:47.868Z,58.42
2018-05-19T09:27:15.410Z,57.36
2018-05-19T09:29:42.957Z,58.03
2018-05-19T09:32:10.494Z,57.36
2018-05-19T09:34:38.014Z,57.08
2018-05-19T09:37:05.590Z,56.95
2018-05-19T09:39:33.117Z,57.86
2018-05-19T09:42:00.637Z,57.11
2018-05-19T09:44:28.177Z,56.41
2018-05-19T09:46:55.697Z,56.42
2018-05-19T09:49:23.246Z,57.92
2018-05-19T09:51:50.762Z,57.00
2018-05-19T09:54:18.309Z,57.26
2018-05-19T09:56:45.827Z,56.67
2018-05-19T09:59:13.374Z,57.25
2018-05-19T10:01:40.897Z,56.73
2018-05-19T10:04:08.443Z,56.19
2018-05-19T10:06:35.983Z,56.47
2018-05-19T10:09:04.075Z,52.40
2018-05-19T10:11:31.620Z,54.63
2018-05-19T10:13:59.132Z,55.10
2018-05-19T10:16:26.677Z,57.06
2018-05-19T10:18:54.198Z,56.97
2018-05-19T10:21:21.763Z,56.63
2018-05-19T10:23:49.288Z,55.34
2018-05-19T10:26:16.814Z,53.93
2018-05-19T10:28:44.367Z,53.82
2018-05-19T10:31:11.885Z,55.18
2018-05-19T10:33:39.631Z,53.15
2018-05-19T10:36:07.145Z,54.66
2018-05-19T10:38:34.687Z,51.72
2018-05-19T10:41:02.235Z,48.24
2018-05-19T10:43:29.758Z,51.89
2018-05-19T10:45:57.712Z,52.12
2018-05-19T10:48:25.238Z,53.08
2018-05-19T10:50:52.766Z,52.70
2018-05-19T10:53:20.309Z,53.35
2018-05-19T10:55:47.821Z,50.75
2018-05-19T10:58:15.573Z,52.49
2018-05-19T11:00:43.096Z,52.76
2018-05-19T11:03:10.614Z,50.97
2018-05-19T11:05:38.567Z,49.88
2018-05-19T11:08:06.093Z,47.91
2018-05-19T11:10:33.618Z,48.72
2018-05-19T11:13:01.193Z,51.94
2018-05-19T11:15:28.713Z,48.35
2018-05-19T11:17:56.234Z,49.39
2018-05-19T11:20:23.794Z,48.99
2018-05-19T11:22:51.309Z,48.14
2018-05-19T11:25:18.964Z,50.93
2018-05-19T11:27:46.420Z,52.12
2018-05-19T11:30:13.939Z,52.29
2018-05-19T11:32:41.480Z,52.56
2018-05-19T11:35:09.065Z,51.91
2018-05-19T11:37:36.661Z,53.74
2018-05-19T11:40:04.262Z,49.49
2018-05-19T11:42:31.818Z,51.17
2018-05-19T11:44:59.407Z,52.28
2018-05-19T11:47:26.929Z,51.07
2018-05-19T11:49:54.468Z,53.29
2018-05-19T11:52:22.056Z,50.83
2018-05-19T11:54:49.591Z,51.21
2018-05-19T11:57:17.109Z,50.60
2018-05-19T11:59:44.690Z,50.10
2018-05-19T12:02:12.205Z,51.11
2018-05-19T12:04:39.739Z,50.63
2018-05-19T12:07:07.290Z,51.06
2018-05-19T12:09:34.805Z,51.41
2018-05-19T12:12:02.451Z,49.80
2018-05-19T12:14:29.886Z,51.50
2018-05-19T12:16:57.438Z,50.01
2018-05-19T12:19:24.979Z,47.24
2018-05-19T12:21:52.630Z,47.16
2018-05-19T12:24:20.437Z,50.44
2018-05-19T12:26:47.955Z,50.05
2018-05-19T12:29:15.470Z,50.03
2018-05-19T12:31:43.018Z,49.41
2018-05-19T12:34:10.538Z,48.69
2018-05-19T12:36:38.501Z,50.56
2018-05-19T12:39:06.018Z,48.27
2018-05-19T12:41:33.641Z,48.33
2018-05-19T12:44:01.246Z,49.00
2018-05-19T12:46:28.767Z,50.70
2018-05-19T12:48:56.285Z,47.49
2018-05-19T12:51:23.826Z,44.58
2018-05-19T12:53:51.345Z,44.77
2018-05-19T12:56:18.931Z,46.00
2018-05-19T12:58:46.455Z,45.66
2018-05-19T13:01:13.970Z,46.09
2018-05-19T13:03:41.509Z,46.65
2018-05-19T13:06:09.056Z,50.15
2018-05-19T13:08:36.586Z,49.27
2018-05-19T13:11:04.125Z,47.80
2018-05-19T13:13:31.671Z,44.28
2018-05-19T13:15:59.222Z,46.42
2018-05-19T13:18:26.745Z,46.10
2018-05-19T13:20:54.290Z,47.24
2018-05-19T13:23:21.849Z,47.91
2018-05-19T13:25:49.437Z,47.28
2018-05-19T13:28:16.914Z,46.59
2018-05-19T13:30:44.462Z,48.02
2018-05-19T13:33:11.977Z,47.96
2018-05-19T13:35:39.517Z,46.85
2018-05-19T13:38:07.050Z,46.77
2018-05-19T13:40:34.598Z,46.92
2018-05-19T13:43:02.169Z,48.30
2018-05-19T13:45:29.694Z,48.10
2018-05-19T13:47:57.218Z,49.20
2018-05-19T13:50:24.769Z,48.85
2018-05-19T13:52:52.293Z,49.65
2018-05-19T13:55:19.838Z,47.63
2018-05-19T13:57:47.414Z,47.98
2018-05-19T14:00:14.926Z,45.51
2018-05-19T14:02:42.733Z,45.46
2018-05-19T14:05:10.315Z,46.49
2018-05-19T14:07:37.853Z,45.48
2018-05-19T14:10:05.380Z,45.51
2018-05-19T14:12:32.921Z,47.68
2018-05-19T14:15:00.437Z,47.55
2018-05-19T14:17:28.386Z,48.40
2018-05-19T14:19:55.913Z,50.72
2018-05-19T14:22:23.440Z,50.56
2018-05-19T14:24:50.991Z,51.49
2018-05-19T14:27:18.509Z,50.06
2018-05-19T14:29:46.053Z,49.26
2018-05-19T14:32:13.647Z,51.84
2018-05-19T14:34:41.165Z,51.25
2018-05-19T14:37:08.769Z,51.54
2018-05-19T14:39:36.649Z,51.93
2018-05-19T14:42:04.173Z,53.70
2018-05-19T14:44:31.718Z,51.38
2018-05-19T14:46:59.262Z,51.33
2018-05-19T14:49:26.781Z,53.09
2018-05-19T14:51:54.331Z,53.48
2018-05-19T14:54:21.864Z,51.64
2018-05-19T14:56:49.662Z,51.81
2018-05-19T14:59:17.181Z,50.74
2018-05-19T15:01:44.738Z,49.34
2018-05-19T15:04:12.489Z,49.48
2018-05-19T15:06:40.016Z,49.57
2018-05-19T15:09:07.544Z,49.34
2018-05-19T15:11:35.099Z,49.79
2018-05-19T15:14:02.631Z,52.23
2018-05-19T15:16:30.192Z,49.79
2018-05-19T15:18:57.717Z,49.64
2018-05-19T15:21:25.261Z,50.56
2018-05-19T15:23:52.782Z,50.43
2018-05-19T15:26:20.855Z,52.68
2018-05-19T15:28:48.370Z,52.76
2018-05-19T15:31:15.893Z,52.98
2018-05-19T15:33:43.574Z,50.45
2018-05-19T15:36:11.098Z,50.97
2018-05-19T15:38:38.711Z,53.21
2018-05-19T15:41:06.615Z,52.69
2018-05-19T15:43:34.149Z,53.32
2018-05-19T15:46:01.679Z,53.47
2018-05-19T15:48:29.622Z,52.31
2018-05-19T15:50:57.141Z,51.63
2018-05-19T15:53:24.670Z,51.61
2018-05-19T15:55:52.221Z,51.14
2018-05-19T15:58:19.746Z,51.35
2018-05-19T16:00:47.322Z,51.77
2018-05-19T16:03:14.850Z,52.64
2018-05-19T16:05:42.382Z,52.23
2018-05-19T16:08:10.114Z,52.27
2018-05-19T16:10:37.639Z,50.74
2018-05-19T16:13:05.154Z,51.70
2018-05-19T16:15:32.718Z,51.50
2018-05-19T16:18:00.257Z,51.83
2018-05-19T16:20:27.791Z,51.14
2018-05-19T16:22:55.653Z,52.49
2018-05-19T16:25:23.177Z,52.42
2018-05-19T16:27:50.697Z,50.90
2018-05-19T16:30:18.266Z,51.14
2018-05-19T16:32:45.826Z,52.05
2018-05-19T16:35:13.358Z,52.07
2018-05-19T16:37:40.909Z,52.45
2018-05-19T16:40:08.670Z,52.05
2018-05-19T16:42:36.193Z,51.52
2018-05-19T16:45:03.890Z,51.92
2018-05-19T16:47:31.434Z,51.16
2018-05-19T16:49:58.950Z,52.55
2018-05-19T16:52:26.633Z,52.87
2018-05-19T16:54:54.154Z,51.67
2018-05-19T16:57:21.678Z,52.09
2018-05-19T16:59:49.230Z,52.35
2018-05-19T17:02:16.757Z,52.42
2018-05-19T17:04:44.306Z,53.07
2018-05-19T17:07:11.889Z,52.75
2018-05-19T17:09:39.449Z,52.73
2018-05-19T17:12:06.969Z,52.96
2018-05-19T17:14:34.508Z,52.60
2018-05-19T17:17:02.185Z,54.12
2018-05-19T17:19:29.713Z,52.92
2018-05-19T17:21:57.335Z,54.33
2018-05-19T17:24:24.814Z,54.20
2018-05-19T17:26:52.361Z,53.55
2018-05-19T17:29:19.882Z,54.69
2018-05-19T17:31:47.606Z,53.95
2018-05-19T17:34:15.125Z,54.07
2018-05-19T17:36:42.643Z,54.36
2018-05-19T17:39:11.033Z,55.21
2018-05-19T17:41:38.558Z,54.71
2018-05-19T17:44:06.099Z,55.07
2018-05-19T17:46:33.675Z,54.51
2018-05-19T17:49:01.325Z,55.49
2018-05-19T17:51:28.852Z,54.86
2018-05-19T17:53:56.373Z,54.72
2018-05-19T17:56:24.792Z,54.13
2018-05-19T17:58:52.331Z,54.08
2018-05-19T18:01:20.163Z,53.81
2018-05-19T18:03:47.710Z,52.80
2018-05-19T18:06:15.257Z,52.37
2018-05-19T18:08:42.825Z,52.32
2018-05-19T18:11:10.354Z,52.81
2018-05-19T18:13:37.874Z,53.68
2018-05-19T18:16:05.432Z,54.04
2018-05-19T18:18:33.003Z,54.87
2018-05-19T18:21:00.590Z,55.21
2018-05-19T18:23:28.120Z,55.82
2018-05-19T18:25:55.641Z,56.09
2018-05-19T18:28:23.713Z,57.60
2018-05-19T18:30:51.437Z,57.46
2018-05-19T18:33:19.065Z,57.27
2018-05-19T18:35:46.593Z,57.67
2018-05-19T18:38:14.141Z,58.04
2018-05-19T18:40:41.743Z,58.49
2018-05-19T18:43:09.681Z,59.00
2018-05-19T18:45:37.367Z,58.74
2018-05-19T18:48:04.923Z,58.87
2018-05-19T18:50:32.533Z,58.97
2018-05-19T18:53:00.899Z,58.99
2018-05-19T18:55:28.617Z,59.39
2018-05-19T18:57:56.177Z,59.67
2018-05-19T19:00:23.738Z,60.07
2018-05-19T19:02:51.301Z,60.51
2018-05-19T19:05:18.958Z,60.72
2018-05-19T19:07:46.510Z,61.66
2018-05-19T19:10:14.172Z,61.85
2018-05-19T19:12:41.725Z,63.37
2018-05-19T19:15:09.249Z,62.35
2018-05-19T19:17:36.831Z,62.38
2018-05-19T19:20:04.362Z,62.48
2018-05-19T19:22:31.885Z,63.74
2018-05-19T19:24:59.457Z,63.82
2018-05-19T19:27:26.981Z,64.86
2018-05-19T19:29:54.638Z,65.55
2018-05-19T19:32:22.195Z,66.21
2018-05-19T19:34:49.727Z,66.69
2018-05-19T19:37:17.270Z,67.31
2018-05-19T19:39:44.818Z,67.92
2018-05-19T19:42:12.445Z,68.67
2018-05-19T19:44:40.002Z,69.21
2018-05-19T19:47:07.918Z,69.81
2018-05-19T19:49:35.445Z,70.76
2018-05-19T19:52:02.974Z,70.71
2018-05-19T19:54:30.542Z,70.88
2018-05-19T19:56:58.082Z,70.32
2018-05-19T19:59:25.738Z,69.62
2018-05-19T20:01:53.213Z,70.58
2018-05-19T20:04:20.738Z,70.84
2018-05-19T20:06:48.281Z,71.10
2018-05-19T20:09:15.808Z,71.52
2018-05-19T20:11:43.557Z,70.58
2018-05-19T20:14:11.101Z,69.60
2018-05-19T20:16:38.635Z,69.93
2018-05-19T20:19:06.186Z,69.56
2018-05-19T20:21:33.713Z,69.11
2018-05-19T20:24:01.272Z,69.34
2018-05-19T20:26:28.939Z,68.24
2018-05-19T20:28:56.456Z,68.83
2018-05-19T20:31:23.986Z,68.49
2018-05-19T20:33:51.575Z,67.85
2018-05-19T20:36:19.097Z,67.67
2018-05-19T20:38:46.624Z,68.02
2018-05-19T20:41:14.179Z,67.87
2018-05-19T20:43:41.910Z,67.67
2018-05-19T20:46:09.433Z,67.94
2018-05-19T20:48:36.984Z,68.18
2018-05-19T20:51:05.073Z,68.47
2018-05-19T20:53:32.577Z,68.45
2018-05-19T20:56:00.106Z,68.87
2018-05-19T20:58:27.659Z,69.94
2018-05-19T21:00:55.177Z,70.00
2018-05-19T21:03:22.907Z,69.74
2018-05-19T21:05:50.433Z,70.13
2018-05-19T21:08:17.960Z,69.38
2018-05-19T21:10:45.509Z,69.53
2018-05-19T21:13:13.049Z,69.46
2018-05-19T21:15:40.604Z,69.62
2018-05-19T21:18:08.149Z,69.92
2018-05-19T21:20:35.674Z,70.25
2018-05-19T21:23:03.225Z,71.02
2018-05-19T21:25:30.774Z,71.33
2018-05-19T21:27:58.317Z,71.38
2018-05-19T21:30:25.835Z,71.40
2018-05-19T21:32:53.386Z,71.96
2018-05-19T21:35:20.948Z,71.86
2018-05-19T21:37:48.498Z,72.33
2018-05-19T21:40:16.189Z,72.74
2018-05-19T21:42:43.723Z,72.51
2018-05-19T21:45:11.251Z,72.64
2018-05-19T21:47:38.798Z,72.72
2018-05-19T21:50:06.415Z,72.86
2018-05-19T21:52:34.055Z,72.89
2018-05-19T21:55:01.577Z,73.72
2018-05-19T21:57:29.124Z,73.97
2018-05-19T21:59:56.669Z,73.98
2018-05-19T22:02:24.194Z,74.27
2018-05-19T22:04:51.772Z,73.67
2018-05-19T22:07:19.310Z,73.61
2018-05-19T22:09:46.834Z,73.39
2018-05-19T22:12:14.381Z,73.50
2018-05-19T22:14:41.920Z,73.56
2018-05-19T22:17:09.471Z,73.81
2018-05-19T22:19:36.988Z,74.11
2018-05-19T22:22:04.664Z,74.31
2018-05-19T22:24:32.185Z,74.49
2018-05-19T22:26:59.711Z,75.12
2018-05-19T22:29:27.311Z,74.84
2018-05-19T22:31:54.842Z,74.99
2018-05-19T22:34:22.379Z,75.48
2018-05-19T22:36:49.965Z,75.98
2018-05-19T22:39:17.489Z,76.26
2018-05-19T22:41:45.037Z,76.59
2018-05-19T22:44:12.553Z,76.70
2018-05-19T22:46:40.092Z,77.19
2018-05-19T22:49:07.613Z,77.64
2018-05-19T22:51:35.210Z,77.87
2018-05-19T22:54:02.758Z,77.66
2018-05-19T22:56:30.301Z,77.40
2018-05-19T22:58:58.235Z,77.76
2018-05-19T23:01:25.757Z,77.69
2018-05-19T23:03:53.290Z,77.65
2018-05-19T23:06:20.833Z,77.69
2018-05-19T23:08:48.353Z,77.90
2018-05-19T23:11:15.914Z,78.44
2018-05-19T23:13:43.443Z,79.44
2018-05-19T23:16:10.989Z,79.54
2018-05-19T23:18:39.018Z,80.26
2018-05-19T23:21:06.533Z,80.77
2018-05-19T23:23:34.062Z,80.97
2018-05-19T23:26:01.623Z,81.51
2018-05-19T23:28:29.174Z,81.89
2018-05-19T23:30:56.692Z,82.10
2018-05-19T23:33:24.374Z,81.97
2018-05-19T23:35:51.901Z,82.86
2018-05-19T23:38:19.425Z,82.37
2018-05-19T23:40:46.965Z,82.51
2018-05-19T23:43:14.489Z,82.39
2018-05-19T23:45:42.037Z,82.42
2018-05-19T23:48:09.557Z,82.56
2018-05-19T23:50:37.101Z,82.59
2018-05-19T23:53:04.628Z,82.59
2018-05-19T23:55:32.183Z,82.71
2018-05-19T23:57:59.725Z,82.59
